Estación Meteorológica Peña el Pijo (Robertgarden) [ 11/12/18 20:57:03 CET ]

Fecha Hora Presion(HPa) Temp (°C) Humedad % Rocio (°C) Viento ( m/s) Direccion Lluvia 1Hora(mm) Lluvia 24H(mm) LLuvia Total(mm)
2018-May-19 01:01:41 1008.800 8.1 76 4.1         215.48
2018-May-19 02:01:53 1008.600 8.3 78 4.7         215.48
2018-May-19 03:01:41 1008.300 7.9 80 4.7         215.48
2018-May-19 04:04:14 1007.800 7.8 81 4.8         215.48
2018-May-19 05:02:10 1007.700 6.7 82 3.8         215.48
2018-May-19 06:02:04 1007.700 6.0 83 3.3         215.48
2018-May-19 07:01:59 1008.100 5.3 84 2.8         215.48
2018-May-19 08:01:56 1008.100 7.4 86 5.2         215.48
2018-May-19 09:01:53 1008.100 9.9 84 7.3         215.48
2018-May-19 10:01:51 1008.200 17.2 68 11.2         215.48
2018-May-19 11:01:58 1008.300 19.6 49 8.6         215.48
2018-May-19 12:01:42 1008.100 21.5 42 8.0         215.48
2018-May-19 13:02:03 1008.000 22.3 35 6.0         215.48
2018-May-19 14:01:43 1007.800 21.8 34 5.2         215.48
2018-May-19 15:02:05 1007.300 22.4 34 5.7         215.48
2018-May-19 16:01:44 1006.900 24.2 30 5.6         215.48
2018-May-19 17:01:41 1006.300 21.9 33 4.8         215.48
2018-May-19 18:01:46 1006.100 22.5 30 4.1 3.1 SSW     215.48
2018-May-19 19:01:30 1005.900 22.6 31 4.6         215.48
2018-May-19 20:01:45 1006.000 20.0 35 3.9         215.48
2018-May-19 21:01:47 1006.300 16.8 47 5.4 2.5 SSW     215.48
2018-May-19 22:01:46 1006.900 14.3 57 5.9         215.48
2018-May-19 23:02:02 1007.400 12.1 66 5.9         215.48

Temperatura Máxima:24°    Temperatura Mínima:
Presión Máxima:1008.800 Hpa    Presión Mínima:1005.900 Hpa


Volver